Time,TemperatureF,DewpointF,PressureIn,WindDirection,WindDirectionDegrees,WindSpeedMPH,WindSpeedGustMPH,Humidity,HourlyPrecipIn,Conditions,Clouds,dailyrainin,SolarRadiationWatts/m^2,SoftwareType,DateUTC
2013-03-19 00:12:00,29.0,28.0,-100.00,ENE,69,0.0,0.0,97,0.00,,,0.25,0.000000,,2013-03-19 07:12:00,
2013-03-19 00:21:00,29.0,28.0,-100.00,ENE,69,0.0,0.0,97,0.00,,,0.25,0.000000,,2013-03-19 07:21:00,
2013-03-19 00:32:00,29.0,28.0,-100.00,ENE,69,0.0,0.0,97,0.00,,,0.25,0.000000,,2013-03-19 07:32:00,
2013-03-19 00:42:00,29.0,28.0,-100.00,ENE,69,0.0,0.0,97,0.00,,,0.25,0.000000,,2013-03-19 07:42:00,
2013-03-19 00:52:00,26.0,25.0,-100.00,ENE,60,0.0,1.0,97,0.00,,,0.25,0.000000,,2013-03-19 07:52:00,
2013-03-19 01:12:00,26.0,25.0,-100.00,ENE,60,0.0,1.0,97,0.00,,,0.25,0.000000,,2013-03-19 08:12:00,
2013-03-19 01:22:00,26.0,25.0,-100.00,ENE,60,0.0,1.0,97,0.00,,,0.25,0.000000,,2013-03-19 08:22:00,
2013-03-19 01:32:00,26.0,25.0,-100.00,ENE,60,0.0,1.0,97,0.00,,,0.25,0.000000,,2013-03-19 08:32:00,
2013-03-19 01:42:00,26.0,25.0,-100.00,ENE,60,0.0,1.0,97,0.00,,,0.25,0.000000,,2013-03-19 08:42:00,
2013-03-19 01:52:00,25.0,24.0,-100.00,SE,137,0.0,2.0,97,0.00,,,0.25,0.000000,,2013-03-19 08:52:00,
2013-03-19 02:12:00,25.0,24.0,-100.00,SE,137,0.0,2.0,97,0.00,,,0.25,0.000000,,2013-03-19 09:12:00,
2013-03-19 02:22:00,25.0,24.0,-100.00,SE,137,0.0,2.0,97,0.00,,,0.25,0.000000,,2013-03-19 09:22:00,
2013-03-19 02:32:00,25.0,24.0,-100.00,SE,137,0.0,2.0,97,0.00,,,0.25,0.000000,,2013-03-19 09:32:00,
2013-03-19 02:42:00,25.0,24.0,-100.00,SE,137,0.0,2.0,97,0.00,,,0.25,0.000000,,2013-03-19 09:42:00,
2013-03-19 02:52:00,23.0,22.0,-100.00,North,2,0.0,1.0,95,0.00,,,0.25,0.000000,,2013-03-19 09:52:00,
2013-03-19 03:23:00,23.0,22.0,-100.00,North,2,0.0,1.0,95,0.00,,,0.25,0.000000,,2013-03-19 10:23:00,
2013-03-19 03:32:00,23.0,22.0,-100.00,North,2,0.0,1.0,95,0.00,,,0.25,0.000000,,2013-03-19 10:32:00,
2013-03-19 03:42:00,23.0,22.0,-100.00,North,2,0.0,1.0,95,0.00,,,0.25,0.000000,,2013-03-19 10:42:00,
2013-03-19 03:52:00,21.0,20.0,-100.00,NNE,12,0.0,1.0,94,0.00,,,0.25,0.000000,,2013-03-19 10:52:00,
2013-03-19 04:22:00,21.0,20.0,-100.00,NNE,12,0.0,1.0,94,0.00,,,0.25,0.000000,,2013-03-19 11:22:00,
2013-03-19 04:32:00,21.0,20.0,-100.00,NNE,12,0.0,1.0,94,0.00,,,0.25,0.000000,,2013-03-19 11:32:00,
2013-03-19 04:42:00,21.0,20.0,-100.00,NNE,12,0.0,1.0,94,0.00,,,0.25,0.000000,,2013-03-19 11:42:00,
2013-03-19 05:12:00,20.0,18.0,-100.00,NNE,12,0.0,1.0,93,0.00,,,0.25,0.000000,,2013-03-19 12:12:00,
2013-03-19 05:22:00,20.0,18.0,-100.00,NNE,12,0.0,1.0,93,0.00,,,0.25,0.000000,,2013-03-19 12:22:00,
2013-03-19 05:32:00,20.0,18.0,-100.00,NNE,12,0.0,1.0,93,0.00,,,0.25,0.000000,,2013-03-19 12:32:00,
2013-03-19 05:42:00,20.0,18.0,-100.00,NNE,12,0.0,1.0,93,0.00,,,0.25,0.000000,,2013-03-19 12:42:00,
2013-03-19 05:51:00,20.0,18.0,-100.00,NNE,12,0.0,1.0,93,0.00,,,0.25,0.000000,,2013-03-19 12:51:00,
2013-03-19 05:52:00,19.0,17.0,-100.00,NE,36,0.0,1.0,92,0.00,,,0.25,0.000000,,2013-03-19 12:52:00,
2013-03-19 06:22:00,19.0,17.0,-100.00,NE,36,0.0,1.0,92,0.00,,,0.25,0.000000,,2013-03-19 13:22:00,
2013-03-19 06:32:00,19.0,17.0,-100.00,NE,36,0.0,1.0,92,0.00,,,0.25,0.000000,,2013-03-19 13:32:00,
2013-03-19 06:42:00,19.0,17.0,-100.00,NE,36,0.0,1.0,92,0.00,,,0.25,0.000000,,2013-03-19 13:42:00,
2013-03-19 07:12:00,17.0,15.0,-100.00,NNE,24,0.0,1.0,91,0.00,,,0.25,0.000000,,2013-03-19 14:12:00,
2013-03-19 07:22:00,17.0,15.0,-100.00,NNE,24,0.0,1.0,91,0.00,,,0.25,0.000000,,2013-03-19 14:22:00,
2013-03-19 07:32:00,17.0,15.0,-100.00,NNE,24,0.0,1.0,91,0.00,,,0.25,0.000000,,2013-03-19 14:32:00,
2013-03-19 07:42:00,17.0,15.0,-100.00,NNE,24,0.0,1.0,91,0.00,,,0.25,0.000000,,2013-03-19 14:42:00,
2013-03-19 07:51:00,17.0,15.0,-100.00,NNE,24,0.0,1.0,91,0.00,,,0.25,0.000000,,2013-03-19 14:51:00,
2013-03-19 08:22:00,17.0,15.0,-100.00,NNE,21,0.0,1.0,90,0.00,,,0.25,12.000000,,2013-03-19 15:22:00,
2013-03-19 08:33:00,17.0,15.0,-100.00,NNE,21,0.0,1.0,90,0.00,,,0.25,12.000000,,2013-03-19 15:33:00,
2013-03-19 09:23:00,19.0,17.0,-100.00,ESE,103,0.0,0.0,92,0.00,,,0.25,23.000000,,2013-03-19 16:23:00,
2013-03-19 09:33:00,19.0,17.0,-100.00,ESE,103,0.0,0.0,92,0.00,,,0.25,23.000000,,2013-03-19 16:33:00,
2013-03-19 09:43:00,19.0,17.0,-100.00,ESE,103,0.0,0.0,92,0.00,,,0.25,23.000000,,2013-03-19 16:43:00,
2013-03-19 09:52:00,26.0,24.0,-100.00,East,100,0.0,1.0,93,-99.99,,,0.25,57.000000,,2013-03-19 16:52:00,
2013-03-19 10:23:00,26.0,24.0,-100.00,East,100,0.0,1.0,93,-99.99,,,0.25,57.000000,,2013-03-19 17:23:00,
2013-03-19 10:34:00,26.0,24.0,-100.00,East,100,0.0,1.0,93,-99.99,,,0.25,57.000000,,2013-03-19 17:34:00,
2013-03-19 10:43:00,26.0,24.0,-100.00,East,100,0.0,1.0,93,-99.99,,,0.25,57.000000,,2013-03-19 17:43:00,
2013-03-19 10:52:00,39.0,30.0,-100.00,North,7,2.0,5.0,70,0.00,,,0.25,334.000000,,2013-03-19 17:52:00,
2013-03-19 11:13:00,39.0,30.0,-100.00,North,7,2.0,5.0,70,0.00,,,0.25,334.000000,,2013-03-19 18:13:00,
2013-03-19 11:23:00,39.0,30.0,-100.00,North,7,2.0,5.0,70,0.00,,,0.25,334.000000,,2013-03-19 18:23:00,
2013-03-19 11:33:00,39.0,30.0,-100.00,North,7,2.0,5.0,70,0.00,,,0.25,334.000000,,2013-03-19 18:33:00,
2013-03-19 11:42:00,39.0,30.0,-100.00,North,7,2.0,5.0,70,0.00,,,0.25,334.000000,,2013-03-19 18:42:00,
2013-03-19 11:52:00,41.0,29.0,-100.00,NNE,14,3.0,6.0,61,0.00,,,0.14,380.000000,,2013-03-19 18:52:00,
2013-03-19 12:22:00,41.0,29.0,-100.00,NNE,14,3.0,6.0,61,0.00,,,0.14,380.000000,,2013-03-19 19:22:00,
2013-03-19 12:32:00,41.0,29.0,-100.00,NNE,14,3.0,6.0,61,0.00,,,0.14,380.000000,,2013-03-19 19:32:00,
2013-03-19 12:42:00,41.0,29.0,-100.00,NNE,14,3.0,6.0,61,0.00,,,0.14,380.000000,,2013-03-19 19:42:00,
2013-03-19 12:52:00,45.0,32.0,-100.00,NNW,346,4.0,8.0,60,0.00,,,0.03,650.000000,,2013-03-19 19:52:00,
2013-03-19 13:22:00,45.0,32.0,-100.00,NNW,346,4.0,8.0,60,0.00,,,0.03,650.000000,,2013-03-19 20:22:00,
2013-03-19 13:32:00,45.0,32.0,-100.00,NNW,346,4.0,8.0,60,0.00,,,0.03,650.000000,,2013-03-19 20:32:00,
2013-03-19 13:42:00,45.0,32.0,-100.00,NNW,346,4.0,8.0,60,0.00,,,0.03,650.000000,,2013-03-19 20:42:00,
2013-03-19 13:52:00,48.0,33.0,-100.00,North,359,3.0,11.0,56,0.00,,,-99.99,645.000000,,2013-03-19 20:52:00,
2013-03-19 14:22:00,48.0,33.0,-100.00,North,359,3.0,11.0,56,0.00,,,-99.99,645.000000,,2013-03-19 21:22:00,
2013-03-19 14:33:00,48.0,33.0,-100.00,North,359,3.0,11.0,56,0.00,,,-99.99,645.000000,,2013-03-19 21:33:00,
2013-03-19 14:42:00,48.0,33.0,-100.00,North,359,3.0,11.0,56,0.00,,,-99.99,645.000000,,2013-03-19 21:42:00,
2013-03-19 14:52:00,48.0,34.0,-100.00,North,355,3.0,10.0,58,0.00,,,0.01,623.000000,,2013-03-19 21:52:00,
2013-03-19 15:23:00,48.0,34.0,-100.00,North,355,3.0,10.0,58,0.00,,,0.01,623.000000,,2013-03-19 22:23:00,
2013-03-19 15:33:00,48.0,34.0,-100.00,North,355,3.0,10.0,58,0.00,,,0.01,623.000000,,2013-03-19 22:33:00,
2013-03-19 15:43:00,48.0,34.0,-100.00,North,355,3.0,10.0,58,0.00,,,0.01,623.000000,,2013-03-19 22:43:00,
2013-03-19 16:22:00,49.0,35.0,-100.00,NW,308,2.0,7.0,59,0.00,,,0.01,453.000000,,2013-03-19 23:22:00,
2013-03-19 16:32:00,49.0,35.0,-100.00,NW,308,2.0,7.0,59,0.00,,,0.01,453.000000,,2013-03-19 23:32:00,
2013-03-19 16:42:00,49.0,35.0,-100.00,NW,308,2.0,7.0,59,0.00,,,0.01,453.000000,,2013-03-19 23:42:00,
2013-03-19 16:51:00,49.0,35.0,-100.00,NW,308,2.0,7.0,59,0.00,,,0.01,453.000000,,2013-03-19 23:51:00,
2013-03-19 16:52:00,45.0,35.0,-100.00,NNW,340,2.0,9.0,68,0.00,,,0.01,298.000000,,2013-03-19 23:52:00,
2013-03-19 17:22:00,45.0,35.0,-100.00,NNW,340,2.0,9.0,68,0.00,,,0.01,298.000000,,2013-03-20 00:22:00,
2013-03-19 17:32:00,45.0,35.0,-100.00,NNW,340,2.0,9.0,68,0.00,,,0.01,298.000000,,2013-03-20 00:32:00,
2013-03-19 17:42:00,45.0,35.0,-100.00,NNW,340,2.0,9.0,68,0.00,,,0.01,298.000000,,2013-03-20 00:42:00,
2013-03-19 17:52:00,39.0,35.0,-100.00,North,8,3.0,5.0,86,0.00,,,0.00,97.000000,,2013-03-20 00:52:00,
2013-03-19 18:12:00,39.0,35.0,-100.00,North,8,3.0,5.0,86,0.00,,,0.00,97.000000,,2013-03-20 01:12:00,
2013-03-19 18:22:00,39.0,35.0,-100.00,North,8,3.0,5.0,86,0.00,,,0.00,97.000000,,2013-03-20 01:22:00,
2013-03-19 18:32:00,39.0,35.0,-100.00,North,8,3.0,5.0,86,0.00,,,0.00,97.000000,,2013-03-20 01:32:00,
2013-03-19 18:42:00,39.0,35.0,-100.00,North,8,3.0,5.0,86,0.00,,,0.00,97.000000,,2013-03-20 01:42:00,
2013-03-19 18:52:00,36.0,34.0,-100.00,North,358,1.0,5.0,92,0.00,,,0.00,28.000000,,2013-03-20 01:52:00,
2013-03-19 19:12:00,36.0,34.0,-100.00,North,358,1.0,5.0,92,0.00,,,0.00,28.000000,,2013-03-20 02:12:00,
2013-03-19 19:22:00,36.0,34.0,-100.00,North,358,1.0,5.0,92,0.00,,,0.00,28.000000,,2013-03-20 02:22:00,
2013-03-19 19:32:00,36.0,34.0,-100.00,North,358,1.0,5.0,92,0.00,,,0.00,28.000000,,2013-03-20 02:32:00,
2013-03-19 19:42:00,36.0,34.0,-100.00,North,358,1.0,5.0,92,0.00,,,0.00,28.000000,,2013-03-20 02:42:00,
2013-03-19 19:52:00,34.0,32.0,-100.00,NNE,33,1.0,4.0,94,0.00,,,0.00,0.000000,,2013-03-20 02:52:00,
2013-03-19 20:22:00,34.0,32.0,-100.00,NNE,33,1.0,4.0,94,0.00,,,0.00,0.000000,,2013-03-20 03:22:00,
2013-03-19 20:33:00,34.0,32.0,-100.00,NNE,33,1.0,4.0,94,0.00,,,0.00,0.000000,,2013-03-20 03:33:00,
2013-03-19 20:42:00,34.0,32.0,-100.00,NNE,33,1.0,4.0,94,0.00,,,0.00,0.000000,,2013-03-20 03:42:00,
2013-03-19 20:52:00,33.0,31.0,-100.00,NNE,32,1.0,3.0,94,0.00,,,0.00,0.000000,,2013-03-20 03:52:00,
2013-03-19 21:12:00,33.0,31.0,-100.00,NNE,32,1.0,3.0,94,0.00,,,0.00,0.000000,,2013-03-20 04:12:00,
2013-03-19 21:22:00,33.0,31.0,-100.00,NNE,32,1.0,3.0,94,0.00,,,0.00,0.000000,,2013-03-20 04:22:00,
2013-03-19 21:32:00,33.0,31.0,-100.00,NNE,32,1.0,3.0,94,0.00,,,0.00,0.000000,,2013-03-20 04:32:00,
2013-03-19 21:43:00,33.0,31.0,-100.00,NNE,32,1.0,3.0,94,0.00,,,0.00,0.000000,,2013-03-20 04:43:00,
2013-03-19 21:52:00,33.0,31.0,-100.00,WSW,251,2.0,4.0,94,0.00,,,0.00,0.000000,,2013-03-20 04:52:00,
2013-03-19 22:22:00,33.0,31.0,-100.00,WSW,251,2.0,4.0,94,0.00,,,0.00,0.000000,,2013-03-20 05:22:00,
2013-03-19 22:32:00,33.0,31.0,-100.00,WSW,251,2.0,4.0,94,0.00,,,0.00,0.000000,,2013-03-20 05:32:00,
2013-03-19 22:42:00,33.0,31.0,-100.00,WSW,251,2.0,4.0,94,0.00,,,0.00,0.000000,,2013-03-20 05:42:00,
2013-03-19 23:12:00,34.0,32.0,-100.00,NNE,14,2.0,5.0,93,0.00,,,0.00,0.000000,,2013-03-20 06:12:00,
2013-03-19 23:22:00,34.0,32.0,-100.00,NNE,14,2.0,5.0,93,0.00,,,0.00,0.000000,,2013-03-20 06:22:00,
2013-03-19 23:32:00,34.0,32.0,-100.00,NNE,14,2.0,5.0,93,0.00,,,0.00,0.000000,,2013-03-20 06:32:00,
2013-03-19 23:42:00,34.0,32.0,-100.00,NNE,14,2.0,5.0,93,0.00,,,0.00,0.000000,,2013-03-20 06:42:00,
2013-03-19 23:51:00,34.0,32.0,-100.00,NNE,14,2.0,5.0,93,0.00,,,0.00,0.000000,,2013-03-20 06:51:00,
2013-03-19 23:52:00,33.0,32.0,-100.00,North,7,0.0,4.0,95,0.00,,,0.00,0.000000,,2013-03-20 06:52:00,